• Join FlightAware (Why Join?)
  • Login
  • US Flag 
07:42PM EST


 

Airport Tracker/Info


-or-


 

Live Flight TrackerFlight Track Log ✈ DAL1562 ✈ 17-Apr-2013 ✈ KDTW - KPHL

Flight Track Log - Related Links

Times and Time Zones

All times are in EDT time to prevent confusion due to time zone crossing. See the DAL1562 flight status page for this flight to view local times or setup timezone preferences in your user account.

Time Position Orientation Groundspeed Altitude Reporting Facility
EDT Latitude Longitude Course Direction KTS MPH feet Rate Location/Type
02:28PM 42.2314 -83.3342 95° East 165 190 1,100  Level Cleveland Center
02:29PM 42.2461 -83.3219 32° Northeast 171 197 1,900 1,680 Climbing FAA TRACON SMA TRACON (SMA)
02:29PM 42.2633 -83.3078 31° Northeast 213 245 2,400 1,920 Climbing FAA TRACON SMA TRACON (SMA)
02:29PM 42.2803 -83.2939 31° Northeast 228 262 3,200 2,820 Climbing FAA TRACON SMA TRACON (SMA)
02:30PM 42.3017 -83.2758 32° Northeast 253 291 4,300 3,120 Climbing FAA TRACON SMA TRACON (SMA)
02:30PM 42.3228 -83.2578 32° Northeast 266 306 5,300 2,580 Climbing FAA TRACON SMA TRACON (SMA)
02:30PM 42.3419 -83.2389 36° Northeast 287 330 6,000 2,580 Climbing FAA TRACON SMA TRACON (SMA)
02:31PM 42.2167 -82.7794 90° East  Level FlightAware Approximate
02:31PM 42.3544 -83.2019 65° Northeast 297 342 7,000  Level FAA TRACON SMA TRACON (SMA)
02:31PM 42.3550 -83.1706 89° East 285 328 8,200 3,000 Climbing FAA TRACON SMA TRACON (SMA)
02:31PM 42.3486 -83.1342 103° East 295 339 9,000 2,700 Climbing FAA TRACON SMA TRACON (SMA)
02:32PM 42.2167 -82.5881 90° East  Level FlightAware Approximate
02:32PM 42.3425 -83.0997 103° East 309 356 10,000  Level FAA TRACON SMA TRACON (SMA)
02:32PM 42.3339 -83.0553 105° East 319 367 10,700 1,620 Climbing FAA TRACON SMA TRACON (SMA)
02:32PM 42.3275 -83.0158 102° East 355 409 11,100 1,440 Climbing FAA TRACON SMA TRACON (SMA)
02:33PM 42.2144 -82.3970 95° East  Level FlightAware Approximate
02:33PM 42.3200 -82.9733 103° East 374 430 11,700  Level FAA TRACON SMA TRACON (SMA)
02:33PM 42.3106 -82.9217 104° East 371 427 12,600 1,920 Climbing FAA TRACON SMA TRACON (SMA)
02:33PM 42.3031 -82.8800 104° East 370 426 13,000 1,200 Climbing FAA TRACON SMA TRACON (SMA)
02:34PM 42.2953 -82.8383 104° East 373 429 13,400 1,680 Climbing FAA TRACON SMA TRACON (SMA)
02:34PM 42.2853 -82.7817 103° East 406 467 14,100 1,980 Climbing FAA TRACON SMA TRACON (SMA)
02:34PM 42.2775 -82.7353 103° East 416 479 14,700 1,740 Climbing FAA TRACON SMA TRACON (SMA)
02:35PM 42.2689 -82.6886 104° East 420 483 15,300 2,160 Climbing FAA TRACON SMA TRACON (SMA)
02:35PM 42.2581 -82.6289 104° East 426 490 16,200 2,460 Climbing FAA TRACON SMA TRACON (SMA)
02:35PM 42.2464 -82.5683 105° East 431 496 17,100 2,040 Climbing FAA TRACON SMA TRACON (SMA)
02:36PM 42.2375 -82.5194 104° East 434 499 17,700 1,440 Climbing FAA TRACON SMA TRACON (SMA)
02:36PM 42.2286 -82.4697 104° East 439 505 18,000 1,260 Climbing FAA TRACON SMA TRACON (SMA)
02:36PM 42.2225 -82.4178 99° East 458 527 18,500 1,500 Climbing FAA TRACON SMA TRACON (SMA)
02:37PM 42.2186 -82.3653 96° East 457 526 19,000 1,800 Climbing FAA TRACON SMA TRACON (SMA)
02:37PM 42.2150 -82.2986 94° East 465 535 19,700 1,920 Climbing FAA TRACON SMA TRACON (SMA)
02:37PM 42.2111 -82.2419 95° East 466 536 20,300 1,800 Climbing FAA TRACON SMA TRACON (SMA)
02:38PM 42.2081 -82.1878 94° East 469 540 20,900 1,200 Climbing FAA TRACON SMA TRACON (SMA)
02:38PM 42.2069 -82.1742 96° East 470 541 21,100 300 Climbing FAA TRACON SMA TRACON (SMA)
02:38PM 42.2069 -82.1742 29° Northeast 470 541 21,100 1,500 Level FAA TRACON SMA TRACON (SMA)
02:39PM 42.1750 -81.9364 100° East 478 550 22,900 1,740 Climbing Cleveland Center
02:40PM 42.0783 -81.8142 137° Southeast 455 524 24,300 1,320 Climbing Cleveland Center
02:41PM 41.9775 -81.6919 138° Southeast 473 544 25,600 1,560 Climbing Cleveland Center
02:42PM 41.8642 -81.5644 140° Southeast 480 552 27,500 1,800 Climbing Cleveland Center
02:43PM 41.7608 -81.4461 139° Southeast 488 562 29,200 1,620 Climbing Cleveland Center
02:44PM 41.6614 -81.3308 139° Southeast 482 555 30,800 900 Climbing Cleveland Center
02:45PM 41.5600 -81.2131 139° Southeast 482 555 31,000 60 Climbing Cleveland Center
02:46PM 41.4628 -81.0903 137° Southeast 482 555 31,000  Level Cleveland Center
02:47PM 41.3714 -80.9622 134° Southeast 482 555 31,000  Level Cleveland Center
02:48PM 41.2864 -80.8428 133° Southeast 482 555 31,000  Level Cleveland Center
02:49PM 41.1947 -80.7183 134° Southeast 487 560 31,000  Level Cleveland Center
02:50PM 41.1033 -80.5858 132° Southeast 487 560 31,000  Level Cleveland Center
02:51PM 41.0094 -80.4592 134° Southeast 482 555 31,000  Level Cleveland Center
02:52PM 40.9133 -80.3303 135° Southeast 482 555 31,000  Level Cleveland Center
02:53PM 40.8128 -80.1853 132° Southeast 482 555 31,000  Level Cleveland Center
02:54PM 40.7578 -80.0239 114° Southeast 483 556 31,000  Level Cleveland Center
02:55PM 40.7006 -79.8547 114° Southeast 483 556 31,000  Level Cleveland Center
02:56PM 40.6411 -79.6967 116° Southeast 483 556 31,000  Level Cleveland Center
02:57PM 40.5814 -79.5361 116° Southeast 483 556 31,000  Level Cleveland Center
02:58PM 40.5236 -79.3703 115° Southeast 483 556 31,000  Level Cleveland Center
02:59PM 40.4925 -79.2125 104° East 483 556 31,000  Level Cleveland Center
03:00PM 40.4797 -79.0353 95° East 478 550 31,000  Level Cleveland Center
03:01PM 40.4647 -78.8611 96° East 483 556 31,000  Level Cleveland Center
03:02PM 40.4517 -78.6842 95° East 483 556 31,000 -1,140 Level Cleveland Center
03:04PM 40.4208 -78.3453 97° East 493 567 27,800 -1,920 Descending New York Center
03:05PM 40.4067 -78.1747 96° East 485 558 25,400 -1,440 Descending New York Center
03:06PM 40.3925 -78.0014 96° East 480 552 25,000 -300 Descending New York Center
03:07PM 40.3758 -77.8281 97° East 480 552 24,900 -540 Descending New York Center
03:08PM 40.3458 -77.6614 103° East 475 547 24,000 -960 Descending New York Center
03:09PM 40.3219 -77.4983 101° East 464 534 23,000 -1,140 Descending New York Center
03:10PM 40.2936 -77.3378 103° East 456 525 21,800 -960 Descending New York Center
03:11PM 40.2667 -77.1800 103° East 456 525 21,100 -900 Descending New York Center
03:12PM 40.2414 -77.0308 102° East 441 507 20,000 -1,260 Descending New York Center
03:13PM 40.2164 -76.8681 101° East 419 482 18,600 -1,200 Descending New York Center
03:14PM 40.1928 -76.7219 102° East 414 476 17,700 -1,080 Descending New York Center
03:15PM 40.1703 -76.5869 102° East 414 476 16,500 -1,080 Descending New York Center
03:16PM 40.1458 -76.4436 103° East 419 482 15,600 -1,200 Descending New York Center
03:17PM 40.1303 -76.3497 102° East 401 461 14,600 -2,160 Descending FAA TRACON SMA TRACON (SMA)
03:17PM 40.1233 -76.2956 100° East 397 457 13,600 -2,700 Descending FAA TRACON SMA TRACON (SMA)
03:17PM 40.1172 -76.2528 101° East 394 453 12,800 -2,400 Descending FAA TRACON SMA TRACON (SMA)
03:18PM 40.1150 -76.2103 94° East 394 453 12,000 -2,400 Descending FAA TRACON SMA TRACON (SMA)
03:18PM 40.1122 -76.1558 94° East 386 444 11,200 -2,100 Descending FAA TRACON SMA TRACON (SMA)
03:18PM 40.1094 -76.1139 95° East 381 438 10,600 -1,500 Descending FAA TRACON SMA TRACON (SMA)
03:19PM 40.1067 -76.0619 94° East 373 429 10,200 -600 Descending FAA TRACON SMA TRACON (SMA)
03:19PM 40.1033 -76.0253 97° East 361 415 10,200  Level FAA TRACON SMA TRACON (SMA)
03:19PM 40.1006 -75.9900 96° East 319 367 10,200 -600 Level FAA TRACON SMA TRACON (SMA)
03:20PM 40.0978 -75.9561 96° East 310 357 9,800 -1,080 Descending FAA TRACON SMA TRACON (SMA)
03:20PM 40.0953 -75.9133 94° East 309 356 9,500 -1,200 Descending FAA TRACON SMA TRACON (SMA)
03:20PM 40.0925 -75.8797 96° East 306 352 9,000 -1,500 Descending FAA TRACON SMA TRACON (SMA)
03:21PM 40.0900 -75.8467 96° East 304 350 8,500 -1,380 Descending FAA TRACON SMA TRACON (SMA)
03:21PM 40.0869 -75.8136 97° East 303 349 8,100 -780 Descending FAA TRACON SMA TRACON (SMA)
03:21PM 40.0836 -75.7708 96° East 302 348 8,000 -780 Descending FAA TRACON SMA TRACON (SMA)
03:22PM 40.0817 -75.7375 94° East 301 346 7,600 -1,200 Descending FAA TRACON SMA TRACON (SMA)
03:22PM 40.0792 -75.6964 95° East 299 344 7,200 -1,080 Descending FAA TRACON SMA TRACON (SMA)
03:22PM 40.0794 -75.6650 89° East 296 341 6,900 -1,080 Descending FAA TRACON SMA TRACON (SMA)
03:23PM 40.0769 -75.6278 95° East 294 338 6,500 -1,200 Descending FAA TRACON SMA TRACON (SMA)
03:23PM 40.0753 -75.5900 93° East 293 337 6,100 -780 Descending FAA TRACON SMA TRACON (SMA)
03:23PM 40.0736 -75.5583 94° East 290 334 6,000 -180 Descending FAA TRACON SMA TRACON (SMA)
03:24PM 40.0722 -75.5253 93° East 291 335 6,000  Level FAA TRACON SMA TRACON (SMA)
03:24PM 40.0700 -75.4853 94° East 289 333 6,000 120 Level FAA TRACON SMA TRACON (SMA)
03:24PM 40.0683 -75.4525 94° East 291 335 6,100 120 Climbing FAA TRACON SMA TRACON (SMA)
03:25PM 40.0664 -75.4197 94° East 293 337 6,100  Level FAA TRACON SMA TRACON (SMA)
03:25PM 40.0639 -75.3789 95° East 292 336 6,100 -180 Level FAA TRACON SMA TRACON (SMA)
03:25PM 40.0619 -75.3467 94° East 291 335 6,000 -180 Descending FAA TRACON SMA TRACON (SMA)
03:26PM 40.0606 -75.3139 93° East 291 335 6,000  Level FAA TRACON SMA TRACON (SMA)
03:26PM 40.0583 -75.2731 94° East 293 337 6,000  Level FAA TRACON SMA TRACON (SMA)
03:26PM 40.0569 -75.2411 93° East 291 335 6,000  Level FAA TRACON SMA TRACON (SMA)
03:27PM 40.0500 -75.2089 106° East 297 342 6,000  Level FAA TRACON SMA TRACON (SMA)
03:27PM 40.0431 -75.1708 103° East 292 336 6,000  Level FAA TRACON SMA TRACON (SMA)
03:27PM 40.0372 -75.1375 103° East 291 335 6,000  Level FAA TRACON SMA TRACON (SMA)
03:28PM 40.0322 -75.1064 102° East 285 328 6,000 -180 Level FAA TRACON SMA TRACON (SMA)
03:28PM 40.0261 -75.0731 103° East 236 272 5,900 -480 Descending FAA TRACON SMA TRACON (SMA)
03:28PM 40.0131 -75.0569 137° Southeast 222 255 5,700 -900 Descending FAA TRACON SMA TRACON (SMA)
03:29PM 39.9953 -75.0500 163° South 218 251 5,300 -1,500 Descending FAA TRACON SMA TRACON (SMA)
03:29PM 39.9739 -75.0419 164° South 207 238 4,700 -1,680 Descending FAA TRACON SMA TRACON (SMA)
03:29PM 39.9569 -75.0361 165° South 205 236 4,200 -1,380 Descending FAA TRACON SMA TRACON (SMA)
03:30PM 39.9406 -75.0308 166° South 199 229 3,800 -1,680 Descending FAA TRACON SMA TRACON (SMA)
03:30PM 39.9206 -75.0375 194° South 199 229 3,100 -1,800 Descending FAA TRACON SMA TRACON (SMA)
03:30PM 39.9125 -75.0550 239° Southwest 183 211 2,600 -1,380 Descending FAA TRACON SMA TRACON (SMA)
03:31PM 39.9047 -75.0717 239° Southwest 188 216 2,200 -780 Descending FAA TRACON SMA TRACON (SMA)
03:31PM 39.9006 -75.0922 255° West 187 215 2,100 -300 Descending FAA TRACON SMA TRACON (SMA)